Time;durP1;ratioP1;P1;durP2;ratioP2;P2;SDS_P1;SDS_P2;PMS_P1;PMS_P2;Temp;Humidity;BMP_temperature;BMP_pressure;BME280_temperature;BME280_humidity;BME280_pressure;Samples;Min_cycle;Max_cycle;Signal;HPM_P1;HPM_P2
2022/11/30 00:36:28;;;;;;;22.70;8.70;;;;;;;-2.06;100.00;101527.88;1881605;74;22629;-88
2022/11/30 00:38:55;;;;;;;24.23;9.68;;;;;;;-2.00;100.00;101530.70;1852334;77;20965;-89
2022/11/30 00:41:21;;;;;;;23.00;9.83;;;;;;;-1.91;100.00;101530.12;1850930;77;21210;-90
2022/11/30 00:43:49;;;;;;;26.00;9.13;;;;;;;-1.83;100.00;101528.71;1850072;77;21033;-88
2022/11/30 00:46:15;;;;;;;22.00;8.48;;;;;;;-1.72;100.00;101531.27;1850883;77;21072;-89
2022/11/30 00:48:42;;;;;;;22.20;10.45;;;;;;;-1.64;100.00;101532.81;1851850;77;20985;-88
2022/11/30 00:51:09;;;;;;;20.48;9.03;;;;;;;-1.58;100.00;101530.45;1850928;77;21257;-88
2022/11/30 00:53:36;;;;;;;22.50;9.13;;;;;;;-1.55;100.00;101527.97;1851261;77;21108;-87
2022/11/30 00:56:02;;;;;;;15.25;7.78;;;;;;;-1.56;100.00;101526.23;1852430;77;21483;-90
2022/11/30 00:58:29;;;;;;;15.48;6.95;;;;;;;-1.52;100.00;101537.14;1852745;77;21560;-87
2022/11/30 01:00:56;;;;;;;15.10;6.90;;;;;;;-1.45;100.00;101528.28;1843410;77;21020;-88
2022/11/30 01:03:23;;;;;;;13.68;6.95;;;;;;;-1.40;100.00;101527.63;1859783;76;21081;-90
2022/11/30 01:05:50;;;;;;;14.87;6.58;;;;;;;-1.39;100.00;101520.75;1860793;76;21196;-88
2022/11/30 01:08:16;;;;;;;19.50;7.67;;;;;;;-1.36;100.00;101528.59;1868629;76;21030;-88
2022/11/30 01:10:43;;;;;;;15.83;7.10;;;;;;;-1.36;100.00;101520.84;1835742;77;21041;-89
2022/11/30 01:13:14;;;;;;;15.53;6.92;;;;;;;-1.36;100.00;101516.97;1825746;78;21726;-89
2022/11/30 01:15:42;;;;;;;17.95;7.80;;;;;;;-1.33;100.00;101515.80;1796578;78;21107;-89
2022/11/30 01:18:09;;;;;;;16.65;7.17;;;;;;;-1.30;100.00;101510.73;1826792;78;22441;-88
2022/11/30 01:20:41;;;;;;;14.00;7.47;;;;;;;-1.25;100.00;101515.63;1827180;77;21022;-89
2022/11/30 01:23:09;;;;;;;16.35;7.70;;;;;;;-1.27;100.00;101523.73;1843108;77;21085;-89
2022/11/30 01:25:35;;;;;;;18.82;7.42;;;;;;;-1.31;100.00;101520.61;1860255;77;21003;-90
2022/11/30 01:28:01;;;;;;;18.85;8.80;;;;;;;-1.30;100.00;101521.06;1857625;77;21007;-89
2022/11/30 01:30:28;;;;;;;16.30;7.05;;;;;;;-1.31;100.00;101526.66;1857515;77;21193;-88
2022/11/30 01:32:54;;;;;;;16.02;7.83;;;;;;;-1.23;100.00;101520.44;1856827;77;21054;-88
2022/11/30 01:35:23;;;;;;;16.77;7.53;;;;;;;-1.27;100.00;101518.57;1839752;77;21052;-89
2022/11/30 01:37:49;;;;;;;17.37;8.15;;;;;;;-1.23;100.00;101523.02;1817495;79;21531;-90
2022/11/30 01:40:16;;;;;;;14.20;8.13;;;;;;;-1.21;100.00;101503.70;1799146;79;21062;-89
2022/11/30 01:42:46;;;;;;;17.17;8.20;;;;;;;-1.23;100.00;101504.92;1786548;80;21777;-91
2022/11/30 01:45:13;;;;;;;17.23;7.33;;;;;;;-1.22;100.00;101505.41;1785485;80;21083;-89
2022/11/30 01:47:47;;;;;;;15.63;7.40;;;;;;;-1.22;100.00;101496.36;1784760;80;21099;-90
2022/11/30 01:50:29;;;;;;;17.62;7.60;;;;;;;-1.15;100.00;101497.02;1784413;80;21114;-90
2022/11/30 01:52:56;;;;;;;13.88;7.33;;;;;;;-1.15;100.00;101496.12;1785804;80;21817;-91
2022/11/30 01:55:33;;;;;;;17.42;7.70;;;;;;;-1.19;100.00;101491.28;1786106;80;21222;-87
2022/11/30 01:58:04;;;;;;;18.12;8.73;;;;;;;-1.16;100.00;101495.67;1786974;80;21111;-87
2022/11/30 02:00:31;;;;;;;17.25;8.50;;;;;;;-1.08;100.00;101501.56;1786620;80;21698;-86
2022/11/30 02:03:03;;;;;;;15.20;8.05;;;;;;;-1.02;100.00;101501.28;1785725;80;21553;-89
2022/11/30 02:05:35;;;;;;;20.00;7.22;;;;;;;-0.99;100.00;101503.95;1785223;79;21016;-89
2022/11/30 02:08:01;;;;;;;12.23;7.43;;;;;;;-0.97;100.00;101515.23;1785582;80;21208;-89
2022/11/30 02:10:31;;;;;;;11.65;6.80;;;;;;;-0.87;100.00;101519.89;1785273;79;21106;-90
2022/11/30 02:13:29;;;;;;;14.43;7.30;;;;;;;-0.85;100.00;101513.06;1785234;80;21493;-89
2022/11/30 02:16:10;;;;;;;17.92;8.03;;;;;;;-0.88;100.00;101521.99;1785095;80;21052;-90
2022/11/30 02:19:09;;;;;;;15.95;7.78;;;;;;;-0.74;100.00;101510.78;1784662;80;21094;-90
2022/11/30 02:21:56;;;;;;;16.25;7.10;;;;;;;-0.59;100.00;101520.75;1784859;80;21778;-89
2022/11/30 02:24:37;;;;;;;18.17;7.58;;;;;;;-0.65;100.00;101515.83;1785148;80;21078;-89
2022/11/30 02:27:52;;;;;;;19.77;8.18;;;;;;;-0.69;100.00;101529.91;1784909;80;21107;-90
2022/11/30 02:30:20;;;;;;;15.43;7.35;;;;;;;-0.61;100.00;101526.30;1785439;80;21142;-89
2022/11/30 02:32:52;;;;;;;20.70;7.47;;;;;;;-0.65;100.00;101532.64;1785652;80;21043;-90
2022/11/30 02:35:21;;;;;;;17.42;7.12;;;;;;;-0.65;100.00;101528.76;1795961;78;21866;-89
2022/11/30 02:37:48;;;;;;;14.80;7.30;;;;;;;-0.65;100.00;101524.87;1823191;78;21006;-90
2022/11/30 02:40:16;;;;;;;16.12;7.20;;;;;;;-0.61;100.00;101528.87;1823423;77;21034;-90
2022/11/30 02:42:43;;;;;;;16.37;7.03;;;;;;;-0.48;100.00;101538.78;1793642;78;21072;-89
2022/11/30 02:45:10;;;;;;;15.78;6.90;;;;;;;-0.43;100.00;101526.43;1823461;78;21014;-89
2022/11/30 02:47:50;;;;;;;12.82;6.47;;;;;;;-0.35;100.00;101533.54;1793667;78;21113;-89
2022/11/30 02:50:26;;;;;;;13.22;6.40;;;;;;;-0.38;100.00;101529.16;1818729;78;21093;-90
2022/11/30 02:52:53;;;;;;;13.95;6.60;;;;;;;-0.31;100.00;101523.33;1823365;78;21624;-90
2022/11/30 02:55:19;;;;;;;17.37;7.83;;;;;;;-0.23;100.00;101523.54;1823650;78;21518;-88
2022/11/30 02:57:46;;;;;;;12.78;6.75;;;;;;;-0.27;100.00;101528.19;1823454;78;21077;-88
2022/11/30 03:00:13;;;;;;;13.60;6.05;;;;;;;-0.26;100.00;101521.73;1825494;77;21191;-89
2022/11/30 03:02:42;;;;;;;14.13;6.78;;;;;;;-0.19;100.00;101528.41;1857043;77;21034;-90
2022/11/30 03:05:08;;;;;;;14.30;6.10;;;;;;;-0.04;100.00;101531.45;1856810;77;20963;-90
2022/11/30 03:07:35;;;;;;;12.23;6.17;;;;;;;0.08;100.00;101532.21;1856883;77;22200;-90
2022/11/30 03:10:05;;;;;;;11.10;5.55;;;;;;;0.01;100.00;101528.56;1856560;77;21566;-89
2022/11/30 03:12:31;;;;;;;16.87;6.62;;;;;;;-0.05;100.00;101530.97;1856549;77;21101;-88
2022/11/30 03:14:58;;;;;;;13.78;5.92;;;;;;;-0.50;100.00;101528.80;1829547;77;21054;-88
2022/11/30 03:17:26;;;;;;;12.53;5.87;;;;;;;-0.40;100.00;101535.99;1824056;78;21069;-89
2022/11/30 03:19:52;;;;;;;12.95;6.42;;;;;;;-0.33;100.00;101529.29;1824918;78;20983;-87
2022/11/30 03:22:19;;;;;;;14.28;6.12;;;;;;;-0.13;100.00;101516.94;1825502;78;21100;-86
2022/11/30 03:24:45;;;;;;;13.25;6.17;;;;;;;-0.18;100.00;101522.38;1824018;78;21223;-89
2022/11/30 03:27:12;;;;;;;14.38;7.17;;;;;;;-0.09;100.00;101501.92;1824213;78;21121;-89
2022/11/30 03:29:38;;;;;;;15.30;6.72;;;;;;;-0.07;100.00;101498.97;1823937;78;21042;-89
2022/11/30 03:32:05;;;;;;;14.30;6.50;;;;;;;0.05;100.00;101499.33;1822472;78;21066;-90
2022/11/30 03:34:31;;;;;;;16.40;7.03;;;;;;;0.08;100.00;101507.60;1822929;78;21127;-90
2022/11/30 03:36:58;;;;;;;16.55;7.37;;;;;;;0.09;100.00;101510.25;1822980;78;21161;-91
2022/11/30 03:39:24;;;;;;;18.62;8.55;;;;;;;0.18;100.00;101506.61;1823000;78;21226;-90
2022/11/30 03:41:51;;;;;;;19.67;8.63;;;;;;;0.03;100.00;101511.36;1822812;78;21609;-90
2022/11/30 03:44:18;;;;;;;13.48;6.85;;;;;;;0.30;100.00;101509.05;1823524;78;21120;-91
2022/11/30 03:46:44;;;;;;;16.87;7.83;;;;;;;0.27;100.00;101516.32;1823444;78;22449;-89
2022/11/30 03:49:24;;;;;;;16.90;7.53;;;;;;;0.10;100.00;101514.58;1823675;78;21146;-89
2022/11/30 03:52:00;;;;;;;17.52;7.45;;;;;;;0.25;100.00;101508.92;1821715;78;21053;-90
2022/11/30 03:54:27;;;;;;;19.40;8.13;;;;;;;0.14;100.00;101515.13;1824062;78;21022;-88
2022/11/30 03:56:53;;;;;;;22.02;7.37;;;;;;;-0.16;100.00;101515.53;1823436;78;21034;-90
2022/11/30 03:59:19;;;;;;;13.68;6.60;;;;;;;0.14;100.00;101512.53;1823068;78;21030;-90
2022/11/30 04:01:46;;;;;;;19.48;7.55;;;;;;;0.23;100.00;101513.61;1822785;78;21267;-91
2022/11/30 06:23:44;;;;;;;30.90;13.87;;;;;;;-2.27;100.00;101581.28;1869409;76;22566;-67
2022/11/30 06:26:11;;;;;;;24.72;12.90;;;;;;;-2.21;100.00;101573.75;1825640;78;21080;-68
2022/11/30 06:28:38;;;;;;;21.65;10.55;;;;;;;-2.18;100.00;101571.31;1825527;78;21164;-67
2022/11/30 06:31:06;;;;;;;21.05;9.95;;;;;;;-2.15;100.00;101577.45;1825569;78;21052;-69
2022/11/30 06:33:33;;;;;;;16.90;8.60;;;;;;;-2.12;100.00;101576.69;1825459;78;21567;-68
2022/11/30 06:35:59;;;;;;;18.67;9.33;;;;;;;-2.11;100.00;101576.75;1825915;78;21043;-68
2022/11/30 06:38:26;;;;;;;18.62;9.98;;;;;;;-2.06;100.00;101567.89;1825517;78;21035;-69
2022/11/30 06:40:52;;;;;;;19.45;8.83;;;;;;;-2.10;100.00;101554.39;1825684;78;21092;-68
2022/11/30 06:43:19;;;;;;;17.25;8.90;;;;;;;-2.09;100.00;101566.50;1825411;78;21008;-67
2022/11/30 06:45:47;;;;;;;24.50;11.63;;;;;;;-2.04;100.00;101579.16;1825693;78;20910;-67
2022/11/30 06:48:13;;;;;;;18.95;9.73;;;;;;;-2.11;100.00;101575.47;1825687;78;21095;-68
2022/11/30 06:50:40;;;;;;;18.17;9.08;;;;;;;-1.99;100.00;101558.26;1825709;78;21091;-69
2022/11/30 06:53:07;;;;;;;28.12;13.60;;;;;;;-1.97;100.00;101554.45;1825492;78;21238;-67
2022/11/30 06:55:34;;;;;;;26.87;10.90;;;;;;;-1.94;100.00;101591.98;1825336;78;20991;-68
2022/11/30 06:58:08;;;;;;;28.17;15.03;;;;;;;-1.92;100.00;101597.67;1825391;78;21048;-68
2022/11/30 07:00:34;;;;;;;27.32;10.43;;;;;;;-1.88;100.00;101596.52;1825370;78;21017;-67
2022/11/30 07:03:01;;;;;;;21.73;10.60;;;;;;;-1.79;100.00;101591.70;1825580;78;21025;-68
2022/11/30 07:05:28;;;;;;;28.02;14.43;;;;;;;-1.69;100.00;101610.14;1825324;78;21198;-69
2022/11/30 07:07:55;;;;;;;32.20;15.00;;;;;;;-1.65;100.00;101600.81;1825390;78;21065;-67
2022/11/30 07:10:21;;;;;;;23.32;10.60;;;;;;;-1.58;100.00;101613.13;1825002;78;21033;-69
2022/11/30 07:12:50;;;;;;;20.37;10.55;;;;;;;-1.45;100.00;101603.22;1822060;78;21017;-69
2022/11/30 07:15:16;;;;;;;20.20;10.40;;;;;;;-1.52;100.00;101609.48;1816214;79;21646;-68
2022/11/30 07:17:43;;;;;;;29.67;12.43;;;;;;;-1.52;100.00;101613.36;1816035;79;21130;-69
2022/11/30 07:20:10;;;;;;;29.20;14.03;;;;;;;-1.39;100.00;101617.66;1816103;79;21072;-68
2022/11/30 07:22:37;;;;;;;29.23;13.03;;;;;;;-1.36;100.00;101622.93;1815973;78;21095;-69
2022/11/30 07:27:50;;;;;;;29.67;13.28;;;;;;;-1.42;100.00;101618.44;1816142;79;21076;-68
2022/11/30 07:30:17;;;;;;;25.60;12.70;;;;;;;-1.27;100.00;101617.70;1816209;79;21174;-69
2022/11/30 07:32:44;;;;;;;21.90;11.68;;;;;;;-1.26;100.00;101613.40;1816063;79;21029;-68
2022/11/30 07:35:10;;;;;;;22.13;9.70;;;;;;;-1.43;100.00;101609.33;1815868;79;21055;-68
2022/11/30 07:37:37;;;;;;;26.45;11.55;;;;;;;-1.28;100.00;101607.30;1815508;79;21021;-68
2022/11/30 07:40:05;;;;;;;28.32;13.10;;;;;;;-1.28;100.00;101610.75;1815827;79;21509;-68
2022/11/30 07:42:32;;;;;;;26.25;12.82;;;;;;;-1.22;100.00;101610.10;1815511;79;21188;-68
2022/11/30 07:44:59;;;;;;;19.77;11.08;;;;;;;-1.14;100.00;101623.28;1815342;79;21005;-68
2022/11/30 07:47:25;;;;;;;27.55;11.68;;;;;;;-1.04;100.00;101618.00;1815630;79;20987;-67
2022/11/30 07:49:52;;;;;;;20.32;9.80;;;;;;;-0.99;100.00;101612.56;1816129;79;21005;-69
2022/11/30 07:52:19;;;;;;;26.68;11.22;;;;;;;-0.95;100.00;101611.85;1816094;79;20985;-67
2022/11/30 07:54:46;;;;;;;22.30;11.75;;;;;;;-0.85;100.00;101619.11;1815578;79;21131;-68
2022/11/30 07:57:14;;;;;;;24.80;11.38;;;;;;;-0.66;100.00;101621.45;1815493;79;21074;-68
2022/11/30 07:59:40;;;;;;;30.80;12.60;;;;;;;-0.77;100.00;101618.05;1815499;79;20997;-67
2022/11/30 08:02:09;;;;;;;26.97;12.75;;;;;;;-0.58;100.00;101618.23;1815491;79;21316;-67
2022/11/30 08:04:36;;;;;;;25.62;12.70;;;;;;;-0.65;100.00;101628.80;1815872;79;21032;-68
2022/11/30 08:07:03;;;;;;;24.80;11.97;;;;;;;-0.53;100.00;101623.14;1815526;79;21359;-69
2022/11/30 08:09:29;;;;;;;24.27;11.48;;;;;;;-0.49;100.00;101622.41;1815448;79;21442;-69
2022/11/30 08:11:56;;;;;;;26.15;10.63;;;;;;;-0.50;100.00;101630.59;1815459;79;21025;-68
2022/11/30 08:14:23;;;;;;;23.52;13.38;;;;;;;-0.66;100.00;101629.22;1797397;79;21026;-68
2022/11/30 08:16:50;;;;;;;20.35;11.75;;;;;;;-0.73;100.00;101627.27;1783341;80;21078;-67
2022/11/30 08:19:17;;;;;;;27.60;14.30;;;;;;;-0.61;100.00;101618.14;1783458;80;21134;-69
2022/11/30 08:21:44;;;;;;;22.48;13.25;;;;;;;-0.59;100.00;101619.95;1783036;80;21081;-68
2022/11/30 08:24:12;;;;;;;25.88;12.55;;;;;;;-0.67;100.00;101622.69;1783133;78;21101;-68
2022/11/30 08:26:39;;;;;;;28.50;12.50;;;;;;;-0.44;100.00;101613.08;1783332;80;21065;-67
2022/11/30 08:29:05;;;;;;;23.00;11.73;;;;;;;-0.48;100.00;101616.00;1783366;80;21577;-69
2022/11/30 08:31:35;;;;;;;21.35;10.05;;;;;;;-0.48;100.00;101604.78;1783060;80;21077;-68
2022/11/30 08:34:06;;;;;;;20.02;9.93;;;;;;;-0.63;100.00;101599.97;1782973;80;21073;-67
2022/11/30 08:36:33;;;;;;;25.92;11.93;;;;;;;-0.68;100.00;101606.72;1783189;80;21364;-68
2022/11/30 08:39:01;;;;;;;27.48;14.68;;;;;;;-0.54;100.00;101599.39;1783050;80;21116;-68
2022/11/30 08:41:28;;;;;;;23.87;12.28;;;;;;;-0.56;100.00;101601.05;1783427;80;21038;-68
2022/11/30 08:43:55;;;;;;;24.15;11.18;;;;;;;-0.58;100.00;101593.66;1783325;80;21294;-69
2022/11/30 08:46:23;;;;;;;22.42;11.12;;;;;;;-0.44;100.00;101594.95;1783104;80;21061;-70
2022/11/30 08:48:50;;;;;;;21.25;11.22;;;;;;;-0.36;100.00;101590.91;1783200;80;21015;-70
2022/11/30 08:51:18;;;;;;;26.87;11.85;;;;;;;-0.47;100.00;101589.70;1783593;80;21538;-69
2022/11/30 08:53:46;;;;;;;30.35;12.68;;;;;;;-0.34;100.00;101594.86;1783478;80;21561;-69
2022/11/30 08:56:17;;;;;;;24.52;11.18;;;;;;;-0.51;100.00;101594.31;1783421;80;21313;-69
2022/11/30 08:58:43;;;;;;;39.75;15.85;;;;;;;-0.68;100.00;101602.41;1783464;80;21053;-69
2022/11/30 09:01:13;;;;;;;27.70;13.50;;;;;;;-0.52;100.00;101589.55;1783513;80;22201;-69
2022/11/30 09:03:40;;;;;;;26.52;10.80;;;;;;;-0.54;100.00;101589.92;1783427;80;21709;-69
2022/11/30 09:06:11;;;;;;;27.07;12.40;;;;;;;-0.54;100.00;101594.22;1783158;80;21054;-70
2022/11/30 09:08:39;;;;;;;26.42;11.20;;;;;;;-0.68;100.00;101594.65;1783473;80;21192;-70
2022/11/30 09:11:12;;;;;;;23.62;11.55;;;;;;;-0.60;100.00;101596.60;1783453;80;21030;-70
2022/11/30 09:13:40;;;;;;;24.60;11.28;;;;;;;-0.44;100.00;101596.25;1791223;79;21029;-67
2022/11/30 09:16:07;;;;;;;17.12;9.25;;;;;;;-0.75;100.00;101595.28;1778460;80;21089;-69
2022/11/30 09:18:33;;;;;;;17.70;8.35;;;;;;;-0.83;100.00;101595.44;1747715;81;21037;-70
2022/11/30 09:21:07;;;;;;;17.23;8.73;;;;;;;-0.72;100.00;101594.08;1747226;82;21084;-70
2022/11/30 09:23:33;;;;;;;25.80;9.58;;;;;;;-0.83;100.00;101592.84;1748678;81;21081;-69
2022/11/30 09:26:02;;;;;;;22.42;9.98;;;;;;;-0.68;100.00;101595.95;1750049;82;21319;-70
2022/11/30 09:28:31;;;;;;;19.25;9.70;;;;;;;-0.67;100.00;101597.72;1750181;82;21041;-68
2022/11/30 09:31:04;;;;;;;17.27;10.13;;;;;;;-0.47;100.00;101587.98;1750119;82;21092;-69
2022/11/30 09:33:31;;;;;;;22.62;9.95;;;;;;;-0.62;100.00;101585.32;1780133;80;21198;-69
2022/11/30 09:35:59;;;;;;;19.25;9.98;;;;;;;-0.74;100.00;101584.09;1750198;82;21124;-69
2022/11/30 09:38:26;;;;;;;22.95;10.93;;;;;;;-0.74;100.00;101584.09;1770813;81;21068;-69
2022/11/30 09:40:59;;;;;;;22.55;11.15;;;;;;;-0.44;100.00;101587.19;1770814;81;21048;-69
2022/11/30 09:43:43;;;;;;;22.37;10.20;;;;;;;-0.62;100.00;101595.67;1770976;81;21073;-69
2022/11/30 09:46:10;;;;;;;18.32;9.28;;;;;;;-0.45;100.00;101591.92;1770599;81;21173;-68
2022/11/30 09:49:02;;;;;;;17.55;9.53;;;;;;;-0.49;100.00;101584.89;1770806;81;21060;-70
2022/11/30 09:51:41;;;;;;;18.65;8.75;;;;;;;-0.57;100.00;101590.25;1770658;81;21080;-69
2022/11/30 09:54:13;;;;;;;19.87;9.23;;;;;;;-0.59;100.00;101588.03;1770289;81;21096;-68
2022/11/30 09:56:39;;;;;;;17.90;9.08;;;;;;;-0.67;100.00;101591.25;1750487;82;21108;-68
2022/11/30 09:59:25;;;;;;;21.82;9.58;;;;;;;-0.83;100.00;101590.69;1770843;81;21518;-68
2022/11/30 10:01:52;;;;;;;24.30;8.85;;;;;;;-0.88;100.00;101586.66;1770668;81;21024;-70
2022/11/30 10:04:27;;;;;;;22.98;9.73;;;;;;;-0.75;100.00;101584.94;1770648;81;21665;-69
2022/11/30 10:07:26;;;;;;;22.70;10.35;;;;;;;-0.88;100.00;101581.06;1770594;81;21036;-69
2022/11/30 14:01:25;;;;;;;22.93;8.83;;;;;;;-3.02;100.00;101561.11;1827820;76;22672;-92
2022/11/30 14:04:23;;;;;;;20.57;8.77;;;;;;;-3.02;100.00;101554.25;1785699;77;20960;-90
2022/11/30 14:06:58;;;;;;;28.20;10.57;;;;;;;-2.97;100.00;101554.44;1797142;78;21884;-90
2022/11/30 14:09:51;;;;;;;22.03;10.00;;;;;;;-2.92;100.00;101549.47;1803664;77;21317;-90
2022/11/30 14:12:40;;;;;;;26.30;11.00;;;;;;;-2.83;100.00;101554.62;1805794;79;21006;-91
2022/11/30 14:15:30;;;;;;;29.42;11.40;;;;;;;-2.80;100.00;101552.15;1809557;78;21085;-89
2022/11/30 14:17:57;;;;;;;35.35;12.63;;;;;;;-2.77;100.00;101552.67;1799154;77;21024;-90
2022/11/30 14:20:27;;;;;;;30.57;11.73;;;;;;;-2.66;100.00;101550.53;1792510;77;21140;-90
2022/11/30 14:22:55;;;;;;;33.90;11.03;;;;;;;-2.57;100.00;101556.05;1809473;77;20997;-90
2022/11/30 14:25:21;;;;;;;33.35;11.18;;;;;;;-2.58;100.00;101551.31;1810221;77;21085;-90
2022/11/30 14:27:52;;;;;;;33.18;11.38;;;;;;;-2.47;100.00;101557.28;1801651;77;21777;-91
2022/11/30 14:30:22;;;;;;;25.35;11.10;;;;;;;-2.56;100.00;101554.80;1792879;77;21618;-89
2022/11/30 14:32:54;;;;;;;26.37;10.90;;;;;;;-2.48;100.00;101553.83;1803444;77;21205;-89
2022/11/30 14:35:20;;;;;;;23.30;9.50;;;;;;;-2.42;100.00;101557.92;1821077;77;21014;-91
2022/11/30 14:37:53;;;;;;;23.90;10.30;;;;;;;-2.57;100.00;101558.63;1810472;79;20943;-90
2022/11/30 14:40:23;;;;;;;21.50;9.30;;;;;;;-2.59;100.00;101561.56;1790376;79;21260;-90
2022/11/30 14:42:58;;;;;;;28.23;12.23;;;;;;;-2.65;100.00;101570.33;1771840;80;21113;-90
2022/11/30 14:45:30;;;;;;;23.12;11.35;;;;;;;-2.62;100.00;101570.48;1766946;79;21229;-90
2022/11/30 14:48:12;;;;;;;25.57;10.38;;;;;;;-2.64;100.00;101569.53;1757580;80;21064;-89
2022/11/30 14:50:57;;;;;;;26.40;11.38;;;;;;;-2.68;100.00;101575.38;1775371;78;21133;-89
2022/11/30 14:53:56;;;;;;;33.55;12.28;;;;;;;-2.66;100.00;101573.33;1778432;80;21058;-89
2022/11/30 14:56:36;;;;;;;31.60;13.15;;;;;;;-2.68;100.00;101571.09;1778089;80;21078;-90
2022/11/30 14:59:26;;;;;;;36.95;11.60;;;;;;;-2.68;100.00;101576.67;1741508;82;21471;-90
2022/11/30 15:02:01;;;;;;;28.95;11.45;;;;;;;-2.71;100.00;101573.56;1737355;81;21000;-90
2022/11/30 15:04:29;;;;;;;24.07;10.70;;;;;;;-2.73;100.00;101570.45;1711919;84;21076;-91
2022/11/30 15:06:56;;;;;;;29.63;12.50;;;;;;;-2.74;100.00;101570.84;1749765;81;21068;-90
2022/11/30 15:09:29;;;;;;;30.60;12.98;;;;;;;-2.74;100.00;101576.00;1755169;81;21072;-90
2022/11/30 15:11:55;;;;;;;35.60;15.63;;;;;;;-2.77;100.00;101570.31;1714392;83;21109;-90
2022/11/30 15:14:23;;;;;;;32.78;14.28;;;;;;;-2.76;100.00;101564.35;1707418;83;21037;-90
2022/11/30 15:16:54;;;;;;;28.10;12.63;;;;;;;-2.76;100.00;101574.67;1761625;80;21062;-90
2022/11/30 15:19:28;;;;;;;34.25;15.28;;;;;;;-2.75;100.00;101580.28;1767576;79;21065;-90
2022/11/30 15:21:57;;;;;;;35.68;13.65;;;;;;;-2.77;100.00;101579.34;1777562;80;21014;-90
2022/11/30 15:24:25;;;;;;;38.55;14.60;;;;;;;-2.79;100.00;101583.55;1759508;80;21068;-90
2022/11/30 15:27:07;;;;;;;35.38;15.18;;;;;;;-2.70;100.00;101583.46;1772704;79;21026;-90
2022/11/30 15:29:38;;;;;;;28.17;13.30;;;;;;;-2.71;100.00;101589.42;1777988;80;21053;-90
2022/11/30 15:32:08;;;;;;;36.83;13.08;;;;;;;-2.69;100.00;101581.34;1766353;80;21530;-89
2022/11/30 15:34:41;;;;;;;29.92;13.55;;;;;;;-2.64;100.00;101588.45;1758008;80;21077;-91
2022/11/30 15:37:07;;;;;;;25.25;10.58;;;;;;;-2.58;100.00;101596.45;1768479;80;21380;-89
2022/11/30 15:39:34;;;;;;;30.00;13.05;;;;;;;-2.57;100.00;101598.61;1783173;79;21042;-91
2022/11/30 15:42:03;;;;;;;25.48;11.10;;;;;;;-2.51;100.00;101596.25;1767038;80;21080;-90
2022/11/30 15:44:45;;;;;;;22.60;10.40;;;;;;;-2.58;100.00;101592.97;1745026;80;21501;-90
2022/11/30 15:47:36;;;;;;;24.92;10.58;;;;;;;-2.59;100.00;101596.37;1763643;80;21060;-90
2022/11/30 15:50:23;;;;;;;21.00;9.45;;;;;;;-2.65;100.00;101597.41;1760488;80;21812;-90
2022/11/30 15:52:49;;;;;;;21.42;9.15;;;;;;;-2.59;100.00;101598.96;1758454;80;21208;-91
2022/11/30 15:55:44;;;;;;;22.98;11.33;;;;;;;-2.58;100.00;101594.25;1767073;79;21125;-90
2022/11/30 15:58:44;;;;;;;28.20;11.73;;;;;;;-2.64;100.00;101590.16;1760877;80;21517;-89
2022/11/30 16:01:23;;;;;;;20.23;10.13;;;;;;;-2.65;100.00;101600.86;1768021;79;20881;-90
2022/11/30 16:04:06;;;;;;;29.92;11.88;;;;;;;-2.76;100.00;101594.01;1772022;78;21120;-89
2022/11/30 16:06:38;;;;;;;24.67;10.87;;;;;;;-2.75;100.00;101593.17;1735887;81;21065;-90
2022/11/30 16:09:31;;;;;;;22.37;9.67;;;;;;;-2.66;100.00;101594.38;1698893;82;21057;-89
2022/11/30 16:12:00;;;;;;;28.15;10.38;;;;;;;-2.65;100.00;101597.41;1745520;82;21057;-91
2022/11/30 16:14:27;;;;;;;30.23;10.50;;;;;;;-2.77;100.00;101591.36;1692005;83;21075;-91
2022/11/30 16:16:54;;;;;;;24.18;11.03;;;;;;;-2.81;100.00;101595.49;1756624;81;22229;-90
2022/11/30 16:19:21;;;;;;;28.98;12.35;;;;;;;-2.78;100.00;101595.64;1732482;80;21570;-89
2022/11/30 16:21:50;;;;;;;22.13;10.00;;;;;;;-2.62;100.00;101591.98;1779446;80;21078;-89
2022/11/30 16:24:16;;;;;;;20.37;10.08;;;;;;;-2.44;100.00;101589.26;1771246;79;20994;-89
2022/11/30 16:26:45;;;;;;;24.32;10.75;;;;;;;-2.30;100.00;101587.21;1754346;80;21064;-88
2022/11/30 16:29:13;;;;;;;35.50;14.78;;;;;;;-2.26;100.00;101590.77;1766746;80;21281;-89
2022/11/30 16:31:39;;;;;;;33.50;13.80;;;;;;;-2.30;100.00;101585.02;1768956;80;21026;-91
2022/11/30 16:34:09;;;;;;;30.00;12.18;;;;;;;-2.26;100.00;101589.48;1759934;80;21012;-90
2022/11/30 16:36:37;;;;;;;25.83;12.10;;;;;;;-2.16;100.00;101589.03;1769418;80;21031;-89
2022/11/30 16:39:10;;;;;;;32.83;13.20;;;;;;;-1.99;100.00;101588.36;1736475;81;21033;-89
2022/11/30 16:41:39;;;;;;;23.02;10.65;;;;;;;-1.91;100.00;101590.80;1717352;82;21241;-91
2022/11/30 16:44:14;;;;;;;26.95;11.05;;;;;;;-1.79;100.00;101587.41;1713632;82;21070;-90
2022/11/30 16:46:41;;;;;;;31.45;12.15;;;;;;;-1.71;100.00;101592.84;1708081;82;21062;-91
2022/11/30 16:49:07;;;;;;;25.72;10.80;;;;;;;-1.78;100.00;101590.86;1714165;83;21041;-90
2022/11/30 16:51:35;;;;;;;31.02;13.48;;;;;;;-1.70;100.00;101586.86;1714106;83;21065;-88
2022/11/30 16:54:01;;;;;;;28.20;12.50;;;;;;;-1.60;100.00;101590.23;1705351;83;21288;-90
2022/11/30 16:56:30;;;;;;;30.32;12.47;;;;;;;-1.62;100.00;101582.83;1704499;83;21060;-90
2022/11/30 16:58:57;;;;;;;27.02;12.55;;;;;;;-1.52;100.00;101583.65;1706901;82;21068;-91
2022/11/30 17:01:31;;;;;;;25.05;11.00;;;;;;;-1.59;100.00;101587.23;1774819;80;20998;-90
2022/11/30 17:03:57;;;;;;;25.32;11.05;;;;;;;-1.62;100.00;101584.12;1740927;80;21730;-89
2022/11/30 17:06:26;;;;;;;23.30;9.40;;;;;;;-1.70;100.00;101587.73;1755336;80;21196;-90
2022/11/30 17:08:56;;;;;;;25.65;10.48;;;;;;;-1.77;100.00;101582.27;1761395;80;21080;-91
2022/11/30 17:11:28;;;;;;;22.58;9.40;;;;;;;-1.85;100.00;101586.30;1744791;80;21071;-90
2022/11/30 17:13:55;;;;;;;26.30;10.32;;;;;;;-1.75;100.00;101580.24;1776296;80;21061;-90
2022/11/30 17:16:21;;;;;;;22.45;9.68;;;;;;;-1.57;100.00;101583.88;1739647;82;21053;-91
2022/11/30 17:18:48;;;;;;;20.25;9.93;;;;;;;-1.74;100.00;101578.53;1747910;81;21105;-91
2022/11/30 17:21:27;;;;;;;22.60;10.58;;;;;;;-1.52;100.00;101572.02;1695961;83;21120;-90
2022/11/30 17:23:54;;;;;;;21.90;11.00;;;;;;;-1.55;100.00;101575.77;1721796;83;21014;-91
2022/11/30 17:26:21;;;;;;;24.25;11.20;;;;;;;-1.57;100.00;101583.00;1748258;81;21108;-89
2022/11/30 17:28:49;;;;;;;28.05;10.10;;;;;;;-1.31;100.00;101583.94;1740131;82;21069;-88
2022/11/30 17:31:15;;;;;;;18.07;9.48;;;;;;;-1.29;100.00;101583.55;1740673;82;21193;-90
2022/11/30 17:33:42;;;;;;;19.17;9.15;;;;;;;-1.24;100.00;101582.02;1718414;82;21649;-90
2022/11/30 17:36:12;;;;;;;30.27;9.18;;;;;;;-1.21;100.00;101583.41;1682118;83;21076;-92
2022/11/30 17:38:44;;;;;;;22.22;9.68;;;;;;;-1.32;100.00;101582.16;1745717;80;21750;-90
2022/11/30 17:41:14;;;;;;;;;;;;;;;-1.12;100.00;101578.55;1779996;79;21104;-90
2022/11/30 17:43:40;;;;;;;20.95;9.73;;;;;;;-1.01;100.00;101578.02;1777185;79;21121;-92
2022/11/30 17:46:10;;;;;;;29.40;9.73;;;;;;;-0.89;100.00;101571.98;1745633;80;20950;-90
2022/11/30 17:48:37;;;;;;;20.52;9.30;;;;;;;-0.94;100.00;101572.25;1768014;79;21058;-88
2022/11/30 17:51:04;;;;;;;24.57;11.12;;;;;;;-0.87;100.00;101567.31;1781284;80;21090;-88
2022/11/30 17:53:32;;;;;;;26.17;9.10;;;;;;;-0.85;100.00;101567.38;1734039;80;21062;-91
2022/11/30 17:56:09;;;;;;;24.60;10.48;;;;;;;-0.92;100.00;101576.64;1764871;80;21098;-89
2022/11/30 17:58:40;;;;;;;29.23;10.53;;;;;;;-0.98;100.00;101569.09;1762005;80;21068;-89
2022/11/30 18:01:07;;;;;;;22.80;10.60;;;;;;;-0.87;100.00;101574.20;1744042;80;21748;-91
2022/11/30 18:03:35;;;;;;;18.70;8.75;;;;;;;-0.88;100.00;101560.79;1728774;80;21308;-91
